sensor_id;sensor_type;location;lat;lon;timestamp;temperature;humidity
15359;DHT22;7779;49.596;11.070;2022-12-07T00:01:30;5.30;76.10
15359;DHT22;7779;49.596;11.070;2022-12-07T00:04:01;5.30;76.10
15359;DHT22;7779;49.596;11.070;2022-12-07T00:06:32;5.30;76.00
15359;DHT22;7779;49.596;11.070;2022-12-07T00:08:59;5.30;76.00
15359;DHT22;7779;49.596;11.070;2022-12-07T00:11:25;5.30;76.00
15359;DHT22;7779;49.596;11.070;2022-12-07T00:13:57;5.30;75.90
15359;DHT22;7779;49.596;11.070;2022-12-07T00:16:27;5.30;75.90
15359;DHT22;7779;49.596;11.070;2022-12-07T00:18:55;5.30;75.80
15359;DHT22;7779;49.596;11.070;2022-12-07T00:21:24;5.30;75.90
15359;DHT22;7779;49.596;11.070;2022-12-07T00:23:53;5.30;75.80
15359;DHT22;7779;49.596;11.070;2022-12-07T00:26:30;5.30;75.80
15359;DHT22;7779;49.596;11.070;2022-12-07T00:29:08;5.30;75.90
15359;DHT22;7779;49.596;11.070;2022-12-07T00:31:38;5.30;75.80
15359;DHT22;7779;49.596;11.070;2022-12-07T00:34:05;5.20;75.80
15359;DHT22;7779;49.596;11.070;2022-12-07T00:36:33;5.20;75.80
15359;DHT22;7779;49.596;11.070;2022-12-07T00:39:00;5.20;75.80
15359;DHT22;7779;49.596;11.070;2022-12-07T00:41:28;5.20;75.80
15359;DHT22;7779;49.596;11.070;2022-12-07T00:43:54;5.20;75.80
15359;DHT22;7779;49.596;11.070;2022-12-07T00:46:20;5.20;75.80
15359;DHT22;7779;49.596;11.070;2022-12-07T00:48:48;5.20;75.80
15359;DHT22;7779;49.596;11.070;2022-12-07T00:51:15;5.20;75.70
15359;DHT22;7779;49.596;11.070;2022-12-07T00:53:42;5.20;75.80
15359;DHT22;7779;49.596;11.070;2022-12-07T00:56:14;5.20;75.80
15359;DHT22;7779;49.596;11.070;2022-12-07T00:58:42;5.20;75.80
15359;DHT22;7779;49.596;11.070;2022-12-07T01:01:09;5.20;75.80
15359;DHT22;7779;49.596;11.070;2022-12-07T01:03:36;5.20;75.80
15359;DHT22;7779;49.596;11.070;2022-12-07T01:06:03;5.20;75.80
15359;DHT22;7779;49.596;11.070;2022-12-07T01:08:29;5.20;75.80
15359;DHT22;7779;49.596;11.070;2022-12-07T01:11:05;5.20;75.80
15359;DHT22;7779;49.596;11.070;2022-12-07T01:13:34;5.10;75.80
15359;DHT22;7779;49.596;11.070;2022-12-07T01:16:04;5.10;75.50
15359;DHT22;7779;49.596;11.070;2022-12-07T01:18:32;5.10;75.80
15359;DHT22;7779;49.596;11.070;2022-12-07T01:21:04;5.10;75.80
15359;DHT22;7779;49.596;11.070;2022-12-07T01:23:33;5.10;75.70
15359;DHT22;7779;49.596;11.070;2022-12-07T01:26:06;5.10;75.70
15359;DHT22;7779;49.596;11.070;2022-12-07T01:28:35;5.10;75.70
15359;DHT22;7779;49.596;11.070;2022-12-07T01:31:06;5.10;75.70
15359;DHT22;7779;49.596;11.070;2022-12-07T01:33:35;5.10;75.70
15359;DHT22;7779;49.596;11.070;2022-12-07T01:36:03;5.10;75.70
15359;DHT22;7779;49.596;11.070;2022-12-07T01:38:32;5.10;75.70
15359;DHT22;7779;49.596;11.070;2022-12-07T01:40:59;5.10;75.80
15359;DHT22;7779;49.596;11.070;2022-12-07T01:43:27;5.10;75.80
15359;DHT22;7779;49.596;11.070;2022-12-07T01:45:55;5.10;75.80
15359;DHT22;7779;49.596;11.070;2022-12-07T01:48:26;5.10;75.80
15359;DHT22;7779;49.596;11.070;2022-12-07T01:51:09;5.10;75.80
15359;DHT22;7779;49.596;11.070;2022-12-07T01:53:40;5.10;75.80
15359;DHT22;7779;49.596;11.070;2022-12-07T01:56:14;5.10;75.80
15359;DHT22;7779;49.596;11.070;2022-12-07T01:58:44;5.10;75.90
15359;DHT22;7779;49.596;11.070;2022-12-07T02:01:11;5.10;75.90
15359;DHT22;7779;49.596;11.070;2022-12-07T02:03:39;5.10;76.00
15359;DHT22;7779;49.596;11.070;2022-12-07T02:06:08;5.10;76.00
15359;DHT22;7779;49.596;11.070;2022-12-07T02:08:37;5.10;76.10
15359;DHT22;7779;49.596;11.070;2022-12-07T02:11:04;5.10;76.10
15359;DHT22;7779;49.596;11.070;2022-12-07T02:13:34;5.10;76.00
15359;DHT22;7779;49.596;11.070;2022-12-07T02:16:34;5.10;76.00
15359;DHT22;7779;49.596;11.070;2022-12-07T02:19:29;5.10;76.10
15359;DHT22;7779;49.596;11.070;2022-12-07T02:22:34;5.10;75.70
15359;DHT22;7779;49.596;11.070;2022-12-07T02:29:00;5.00;75.90
15359;DHT22;7779;49.596;11.070;2022-12-07T02:31:43;5.00;75.80
15359;DHT22;7779;49.596;11.070;2022-12-07T02:34:26;5.00;75.70
15359;DHT22;7779;49.596;11.070;2022-12-07T02:37:03;5.00;75.80
15359;DHT22;7779;49.596;11.070;2022-12-07T02:39:46;5.00;75.70
15359;DHT22;7779;49.596;11.070;2022-12-07T02:42:23;5.00;75.70
15359;DHT22;7779;49.596;11.070;2022-12-07T02:44:57;5.00;75.60
15359;DHT22;7779;49.596;11.070;2022-12-07T02:47:25;5.00;75.50
15359;DHT22;7779;49.596;11.070;2022-12-07T02:49:52;4.90;75.30
15359;DHT22;7779;49.596;11.070;2022-12-07T02:52:18;4.90;75.20
15359;DHT22;7779;49.596;11.070;2022-12-07T02:54:44;4.90;75.10
15359;DHT22;7779;49.596;11.070;2022-12-07T03:00:15;4.80;74.90
15359;DHT22;7779;49.596;11.070;2022-12-07T03:03:09;4.80;75.00
15359;DHT22;7779;49.596;11.070;2022-12-07T03:06:00;4.70;74.90
15359;DHT22;7779;49.596;11.070;2022-12-07T03:09:32;4.70;75.00
15359;DHT22;7779;49.596;11.070;2022-12-07T03:12:40;4.70;75.10
15359;DHT22;7779;49.596;11.070;2022-12-07T03:15:27;4.60;75.10
15359;DHT22;7779;49.596;11.070;2022-12-07T03:18:04;4.60;75.20
15359;DHT22;7779;49.596;11.070;2022-12-07T03:20:32;4.60;75.20
15359;DHT22;7779;49.596;11.070;2022-12-07T03:23:00;4.50;75.20
15359;DHT22;7779;49.596;11.070;2022-12-07T03:25:29;4.50;75.20
15359;DHT22;7779;49.596;11.070;2022-12-07T03:28:03;4.50;75.40
15359;DHT22;7779;49.596;11.070;2022-12-07T03:30:42;4.50;75.40
15359;DHT22;7779;49.596;11.070;2022-12-07T03:36:47;4.50;75.50
15359;DHT22;7779;49.596;11.070;2022-12-07T03:39:30;4.50;75.30
15359;DHT22;7779;49.596;11.070;2022-12-07T03:42:04;4.40;74.90
15359;DHT22;7779;49.596;11.070;2022-12-07T03:44:34;4.40;74.70
15359;DHT22;7779;49.596;11.070;2022-12-07T03:47:19;4.30;74.30
15359;DHT22;7779;49.596;11.070;2022-12-07T03:49:55;4.30;74.30
15359;DHT22;7779;49.596;11.070;2022-12-07T03:52:38;4.20;74.00
15359;DHT22;7779;49.596;11.070;2022-12-07T03:55:12;4.10;73.90
15359;DHT22;7779;49.596;11.070;2022-12-07T03:57:45;4.10;74.40
15359;DHT22;7779;49.596;11.070;2022-12-07T04:00:14;4.00;73.70
15359;DHT22;7779;49.596;11.070;2022-12-07T04:02:42;3.90;73.70
15359;DHT22;7779;49.596;11.070;2022-12-07T04:05:09;3.90;73.80
15359;DHT22;7779;49.596;11.070;2022-12-07T04:07:35;3.80;73.80
15359;DHT22;7779;49.596;11.070;2022-12-07T04:10:00;3.80;73.80
15359;DHT22;7779;49.596;11.070;2022-12-07T04:12:26;3.70;73.90
15359;DHT22;7779;49.596;11.070;2022-12-07T04:14:52;3.60;73.90
15359;DHT22;7779;49.596;11.070;2022-12-07T04:17:17;3.60;74.00
15359;DHT22;7779;49.596;11.070;2022-12-07T04:19:43;3.50;74.10
15359;DHT22;7779;49.596;11.070;2022-12-07T04:22:09;3.50;74.30
15359;DHT22;7779;49.596;11.070;2022-12-07T04:24:35;3.40;74.30
15359;DHT22;7779;49.596;11.070;2022-12-07T04:27:00;3.40;74.60
15359;DHT22;7779;49.596;11.070;2022-12-07T04:29:26;3.40;74.80
15359;DHT22;7779;49.596;11.070;2022-12-07T04:31:52;3.40;75.00
15359;DHT22;7779;49.596;11.070;2022-12-07T04:34:18;3.40;75.10
15359;DHT22;7779;49.596;11.070;2022-12-07T04:36:45;3.30;75.20
15359;DHT22;7779;49.596;11.070;2022-12-07T04:39:30;3.30;75.40
15359;DHT22;7779;49.596;11.070;2022-12-07T04:41:57;3.30;75.60
15359;DHT22;7779;49.596;11.070;2022-12-07T04:44:25;3.30;75.60
15359;DHT22;7779;49.596;11.070;2022-12-07T04:46:52;3.30;75.70
15359;DHT22;7779;49.596;11.070;2022-12-07T04:49:19;3.40;75.90
15359;DHT22;7779;49.596;11.070;2022-12-07T04:51:46;3.40;75.90
15359;DHT22;7779;49.596;11.070;2022-12-07T04:54:13;3.40;76.00
15359;DHT22;7779;49.596;11.070;2022-12-07T04:56:40;3.40;76.10
15359;DHT22;7779;49.596;11.070;2022-12-07T04:59:07;3.40;76.10
15359;DHT22;7779;49.596;11.070;2022-12-07T05:01:33;3.40;76.10
15359;DHT22;7779;49.596;11.070;2022-12-07T05:03:59;3.40;76.10
15359;DHT22;7779;49.596;11.070;2022-12-07T05:06:25;3.40;76.20
15359;DHT22;7779;49.596;11.070;2022-12-07T05:08:51;3.40;76.20
15359;DHT22;7779;49.596;11.070;2022-12-07T05:11:17;3.40;76.20
15359;DHT22;7779;49.596;11.070;2022-12-07T05:14:03;3.50;76.40
15359;DHT22;7779;49.596;11.070;2022-12-07T05:16:30;3.50;76.40
15359;DHT22;7779;49.596;11.070;2022-12-07T05:18:56;3.50;76.50
15359;DHT22;7779;49.596;11.070;2022-12-07T05:21:22;3.50;76.60
15359;DHT22;7779;49.596;11.070;2022-12-07T05:23:48;3.60;76.70
15359;DHT22;7779;49.596;11.070;2022-12-07T05:26:14;3.60;76.80
15359;DHT22;7779;49.596;11.070;2022-12-07T05:28:39;3.60;76.80
15359;DHT22;7779;49.596;11.070;2022-12-07T05:31:05;3.60;76.80
15359;DHT22;7779;49.596;11.070;2022-12-07T05:33:31;3.70;76.90
15359;DHT22;7779;49.596;11.070;2022-12-07T05:35:57;3.70;76.90
15359;DHT22;7779;49.596;11.070;2022-12-07T05:38:23;3.70;76.80
15359;DHT22;7779;49.596;11.070;2022-12-07T05:40:50;3.80;76.90
15359;DHT22;7779;49.596;11.070;2022-12-07T05:43:16;3.80;76.90
15359;DHT22;7779;49.596;11.070;2022-12-07T05:45:42;3.80;76.80
15359;DHT22;7779;49.596;11.070;2022-12-07T05:48:07;3.80;76.70
15359;DHT22;7779;49.596;11.070;2022-12-07T05:50:33;3.90;76.80
15359;DHT22;7779;49.596;11.070;2022-12-07T05:52:59;3.90;76.70
15359;DHT22;7779;49.596;11.070;2022-12-07T05:55:25;3.90;76.60
15359;DHT22;7779;49.596;11.070;2022-12-07T05:57:51;3.90;76.60
15359;DHT22;7779;49.596;11.070;2022-12-07T06:00:45;3.90;76.50
15359;DHT22;7779;49.596;11.070;2022-12-07T06:03:11;4.00;76.50
15359;DHT22;7779;49.596;11.070;2022-12-07T06:05:37;4.00;76.50
15359;DHT22;7779;49.596;11.070;2022-12-07T06:08:03;4.00;76.50
15359;DHT22;7779;49.596;11.070;2022-12-07T06:10:28;4.00;76.40
15359;DHT22;7779;49.596;11.070;2022-12-07T06:12:54;4.00;76.40
15359;DHT22;7779;49.596;11.070;2022-12-07T06:15:20;4.00;76.50
15359;DHT22;7779;49.596;11.070;2022-12-07T06:17:47;4.00;76.50
15359;DHT22;7779;49.596;11.070;2022-12-07T06:20:13;4.00;76.40
15359;DHT22;7779;49.596;11.070;2022-12-07T06:22:38;4.00;76.30
15359;DHT22;7779;49.596;11.070;2022-12-07T06:25:04;4.00;76.30
15359;DHT22;7779;49.596;11.070;2022-12-07T06:27:30;4.10;76.50
15359;DHT22;7779;49.596;11.070;2022-12-07T06:29:58;4.10;76.50
15359;DHT22;7779;49.596;11.070;2022-12-07T06:32:24;4.10;76.50
15359;DHT22;7779;49.596;11.070;2022-12-07T06:34:50;4.10;76.50
15359;DHT22;7779;49.596;11.070;2022-12-07T06:37:15;4.10;76.50
15359;DHT22;7779;49.596;11.070;2022-12-07T06:39:41;4.10;76.50
15359;DHT22;7779;49.596;11.070;2022-12-07T06:42:07;4.20;76.50
15359;DHT22;7779;49.596;11.070;2022-12-07T06:44:33;4.20;76.50
15359;DHT22;7779;49.596;11.070;2022-12-07T06:46:58;4.20;76.40
15359;DHT22;7779;49.596;11.070;2022-12-07T06:49:24;4.20;76.40
15359;DHT22;7779;49.596;11.070;2022-12-07T06:51:50;4.20;76.30
15359;DHT22;7779;49.596;11.070;2022-12-07T06:54:15;4.20;76.30
15359;DHT22;7779;49.596;11.070;2022-12-07T06:56:42;4.20;76.30
15359;DHT22;7779;49.596;11.070;2022-12-07T06:59:08;4.20;76.30
15359;DHT22;7779;49.596;11.070;2022-12-07T07:01:35;4.20;76.20
15359;DHT22;7779;49.596;11.070;2022-12-07T07:04:02;4.30;76.30
15359;DHT22;7779;49.596;11.070;2022-12-07T07:06:27;4.30;76.30
15359;DHT22;7779;49.596;11.070;2022-12-07T07:08:53;4.30;76.20
15359;DHT22;7779;49.596;11.070;2022-12-07T07:11:19;4.30;76.20
15359;DHT22;7779;49.596;11.070;2022-12-07T07:13:45;4.30;76.10
15359;DHT22;7779;49.596;11.070;2022-12-07T07:16:11;4.30;76.10
15359;DHT22;7779;49.596;11.070;2022-12-07T07:18:37;4.30;76.10
15359;DHT22;7779;49.596;11.070;2022-12-07T07:21:03;4.30;76.10
15359;DHT22;7779;49.596;11.070;2022-12-07T07:23:29;4.30;76.10
15359;DHT22;7779;49.596;11.070;2022-12-07T07:25:55;4.30;76.20
15359;DHT22;7779;49.596;11.070;2022-12-07T07:28:21;4.30;76.10
15359;DHT22;7779;49.596;11.070;2022-12-07T07:30:48;4.30;76.10
15359;DHT22;7779;49.596;11.070;2022-12-07T07:33:13;4.40;76.20
15359;DHT22;7779;49.596;11.070;2022-12-07T07:35:39;4.40;76.20
15359;DHT22;7779;49.596;11.070;2022-12-07T07:38:06;4.40;76.30
15359;DHT22;7779;49.596;11.070;2022-12-07T07:40:32;4.40;76.30
15359;DHT22;7779;49.596;11.070;2022-12-07T07:42:59;4.40;76.40
15359;DHT22;7779;49.596;11.070;2022-12-07T07:45:25;4.40;76.30
15359;DHT22;7779;49.596;11.070;2022-12-07T07:47:52;4.40;76.40
15359;DHT22;7779;49.596;11.070;2022-12-07T07:50:18;4.50;76.50
15359;DHT22;7779;49.596;11.070;2022-12-07T07:52:45;4.50;76.50
15359;DHT22;7779;49.596;11.070;2022-12-07T07:55:11;4.50;76.50
15359;DHT22;7779;49.596;11.070;2022-12-07T07:57:39;4.50;76.50
15359;DHT22;7779;49.596;11.070;2022-12-07T08:00:08;4.60;76.50
15359;DHT22;7779;49.596;11.070;2022-12-07T08:02:41;4.60;76.50
15359;DHT22;7779;49.596;11.070;2022-12-07T08:05:12;4.60;76.60
15359;DHT22;7779;49.596;11.070;2022-12-07T08:07:38;4.60;76.60
15359;DHT22;7779;49.596;11.070;2022-12-07T08:10:05;4.60;77.20
15359;DHT22;7779;49.596;11.070;2022-12-07T08:12:35;4.60;76.60
15359;DHT22;7779;49.596;11.070;2022-12-07T08:15:03;4.70;76.70
15359;DHT22;7779;49.596;11.070;2022-12-07T08:17:29;4.70;76.80
15359;DHT22;7779;49.596;11.070;2022-12-07T08:19:55;4.70;76.80
15359;DHT22;7779;49.596;11.070;2022-12-07T08:22:21;4.80;77.00
15359;DHT22;7779;49.596;11.070;2022-12-07T08:24:47;4.80;76.90
15359;DHT22;7779;49.596;11.070;2022-12-07T08:27:13;4.80;76.90
15359;DHT22;7779;49.596;11.070;2022-12-07T08:29:38;4.90;77.00
15359;DHT22;7779;49.596;11.070;2022-12-07T08:32:04;4.90;77.00
15359;DHT22;7779;49.596;11.070;2022-12-07T08:34:30;4.90;76.90
15359;DHT22;7779;49.596;11.070;2022-12-07T08:36:55;5.00;77.00
15359;DHT22;7779;49.596;11.070;2022-12-07T08:39:21;5.00;77.00
15359;DHT22;7779;49.596;11.070;2022-12-07T08:41:47;5.00;76.90
15359;DHT22;7779;49.596;11.070;2022-12-07T08:44:13;5.10;76.90
15359;DHT22;7779;49.596;11.070;2022-12-07T08:46:44;5.10;76.90
15359;DHT22;7779;49.596;11.070;2022-12-07T08:49:20;5.10;76.70
15359;DHT22;7779;49.596;11.070;2022-12-07T08:51:50;5.20;77.40
15359;DHT22;7779;49.596;11.070;2022-12-07T08:54:17;5.20;76.70
15359;DHT22;7779;49.596;11.070;2022-12-07T08:56:46;5.20;76.60
15359;DHT22;7779;49.596;11.070;2022-12-07T08:59:14;5.20;76.50
15359;DHT22;7779;49.596;11.070;2022-12-07T09:01:41;5.20;76.40
15359;DHT22;7779;49.596;11.070;2022-12-07T09:04:07;5.30;76.40
15359;DHT22;7779;49.596;11.070;2022-12-07T09:06:33;5.30;76.40
15359;DHT22;7779;49.596;11.070;2022-12-07T09:08:59;5.30;76.30
15359;DHT22;7779;49.596;11.070;2022-12-07T09:11:27;5.30;76.30
15359;DHT22;7779;49.596;11.070;2022-12-07T09:13:52;5.30;76.30
15359;DHT22;7779;49.596;11.070;2022-12-07T09:16:18;5.40;76.30
15359;DHT22;7779;49.596;11.070;2022-12-07T09:18:44;5.40;75.40
15359;DHT22;7779;49.596;11.070;2022-12-07T09:21:09;5.40;76.30
15359;DHT22;7779;49.596;11.070;2022-12-07T09:23:35;5.40;76.20
15359;DHT22;7779;49.596;11.070;2022-12-07T09:26:03;5.40;76.10
15359;DHT22;7779;49.596;11.070;2022-12-07T09:28:32;5.50;76.20
15359;DHT22;7779;49.596;11.070;2022-12-07T09:30:58;5.50;76.10
15359;DHT22;7779;49.596;11.070;2022-12-07T09:33:25;5.50;76.10
15359;DHT22;7779;49.596;11.070;2022-12-07T09:35:51;5.50;76.10
15359;DHT22;7779;49.596;11.070;2022-12-07T09:38:19;5.50;76.10
15359;DHT22;7779;49.596;11.070;2022-12-07T09:40:45;5.50;76.20
15359;DHT22;7779;49.596;11.070;2022-12-07T09:43:21;5.60;76.20
15359;DHT22;7779;49.596;11.070;2022-12-07T09:45:51;5.60;76.10
15359;DHT22;7779;49.596;11.070;2022-12-07T09:48:29;5.60;76.10
15359;DHT22;7779;49.596;11.070;2022-12-07T09:51:02;5.60;76.10
15359;DHT22;7779;49.596;11.070;2022-12-07T09:53:39;5.60;76.00
15359;DHT22;7779;49.596;11.070;2022-12-07T09:56:11;5.60;76.00
15359;DHT22;7779;49.596;11.070;2022-12-07T09:58:39;5.70;76.10
15359;DHT22;7779;49.596;11.070;2022-12-07T10:01:12;5.70;76.10
15359;DHT22;7779;49.596;11.070;2022-12-07T10:03:45;5.70;76.00
15359;DHT22;7779;49.596;11.070;2022-12-07T10:06:15;5.70;76.10
15359;DHT22;7779;49.596;11.070;2022-12-07T10:08:41;5.70;76.10
15359;DHT22;7779;49.596;11.070;2022-12-07T10:11:09;5.70;76.10
15359;DHT22;7779;49.596;11.070;2022-12-07T10:13:41;5.80;76.20
15359;DHT22;7779;49.596;11.070;2022-12-07T10:16:31;5.80;76.10
15359;DHT22;7779;49.596;11.070;2022-12-07T10:22:10;5.80;75.70
15359;DHT22;7779;49.596;11.070;2022-12-07T10:24:39;5.80;75.70
15359;DHT22;7779;49.596;11.070;2022-12-07T10:27:22;5.80;75.90
15359;DHT22;7779;49.596;11.070;2022-12-07T10:29:54;5.90;76.00
15359;DHT22;7779;49.596;11.070;2022-12-07T10:34:45;5.90;76.10
15359;DHT22;7779;49.596;11.070;2022-12-07T10:39:49;5.90;76.00
15359;DHT22;7779;49.596;11.070;2022-12-07T10:42:30;5.90;75.90
15359;DHT22;7779;49.596;11.070;2022-12-07T10:45:09;5.90;76.30
15359;DHT22;7779;49.596;11.070;2022-12-07T10:56:43;6.00;75.70
15359;DHT22;7779;49.596;11.070;2022-12-07T11:02:45;6.00;75.60
15359;DHT22;7779;49.596;11.070;2022-12-07T11:08:50;6.00;75.70
15359;DHT22;7779;49.596;11.070;2022-12-07T11:11:35;6.00;75.40
15359;DHT22;7779;49.596;11.070;2022-12-07T11:14:18;6.00;75.60
15359;DHT22;7779;49.596;11.070;2022-12-07T11:17:18;6.00;75.70
15359;DHT22;7779;49.596;11.070;2022-12-07T11:37:37;6.10;75.60
15359;DHT22;7779;49.596;11.070;2022-12-07T11:46:14;6.10;75.60
15359;DHT22;7779;49.596;11.070;2022-12-07T11:51:39;6.10;75.60
15359;DHT22;7779;49.596;11.070;2022-12-07T11:54:16;6.10;75.70
15359;DHT22;7779;49.596;11.070;2022-12-07T11:56:49;6.10;75.60
15359;DHT22;7779;49.596;11.070;2022-12-07T11:59:25;6.20;75.80
15359;DHT22;7779;49.596;11.070;2022-12-07T12:02:26;6.10;75.60
15359;DHT22;7779;49.596;11.070;2022-12-07T12:05:16;6.20;75.40
15359;DHT22;7779;49.596;11.070;2022-12-07T12:07:46;6.20;75.30
15359;DHT22;7779;49.596;11.070;2022-12-07T12:14:23;6.20;75.00
15359;DHT22;7779;49.596;11.070;2022-12-07T12:22:19;6.20;75.30
15359;DHT22;7779;49.596;11.070;2022-12-07T12:24:52;6.20;75.20
15359;DHT22;7779;49.596;11.070;2022-12-07T12:27:32;6.20;75.30
15359;DHT22;7779;49.596;11.070;2022-12-07T12:30:03;6.30;75.40
15359;DHT22;7779;49.596;11.070;2022-12-07T12:32:42;6.20;75.40
15359;DHT22;7779;49.596;11.070;2022-12-07T12:38:25;6.30;75.20
15359;DHT22;7779;49.596;11.070;2022-12-07T12:41:02;6.30;75.00
15359;DHT22;7779;49.596;11.070;2022-12-07T12:43:50;6.30;75.30
15359;DHT22;7779;49.596;11.070;2022-12-07T12:57:35;6.30;75.10
15359;DHT22;7779;49.596;11.070;2022-12-07T13:00:22;6.30;75.40
15359;DHT22;7779;49.596;11.070;2022-12-07T13:02:58;6.30;75.30
15359;DHT22;7779;49.596;11.070;2022-12-07T13:05:27;6.30;75.30
15359;DHT22;7779;49.596;11.070;2022-12-07T13:08:15;6.30;76.00
15359;DHT22;7779;49.596;11.070;2022-12-07T13:10:47;6.30;75.40
15359;DHT22;7779;49.596;11.070;2022-12-07T13:29:15;6.40;74.90
15359;DHT22;7779;49.596;11.070;2022-12-07T13:31:56;6.40;75.00
15359;DHT22;7779;49.596;11.070;2022-12-07T13:34:28;6.40;75.00
15359;DHT22;7779;49.596;11.070;2022-12-07T13:37:15;6.40;75.00
15359;DHT22;7779;49.596;11.070;2022-12-07T13:39:50;6.40;74.90
15359;DHT22;7779;49.596;11.070;2022-12-07T13:42:26;6.40;75.30
15359;DHT22;7779;49.596;11.070;2022-12-07T13:44:52;6.40;74.90
15359;DHT22;7779;49.596;11.070;2022-12-07T13:49:56;6.40;74.90
15359;DHT22;7779;49.596;11.070;2022-12-07T13:52:27;6.40;75.00
15359;DHT22;7779;49.596;11.070;2022-12-07T13:55:00;6.40;75.00
15359;DHT22;7779;49.596;11.070;2022-12-07T13:57:34;6.40;75.00
15359;DHT22;7779;49.596;11.070;2022-12-07T14:00:03;6.40;75.00
15359;DHT22;7779;49.596;11.070;2022-12-07T14:02:34;6.40;74.80
15359;DHT22;7779;49.596;11.070;2022-12-07T14:05:22;6.40;74.80
15359;DHT22;7779;49.596;11.070;2022-12-07T14:07:58;6.40;74.70
15359;DHT22;7779;49.596;11.070;2022-12-07T14:10:36;6.40;74.70
15359;DHT22;7779;49.596;11.070;2022-12-07T14:13:40;6.40;74.60
15359;DHT22;7779;49.596;11.070;2022-12-07T14:16:36;6.40;74.50
15359;DHT22;7779;49.596;11.070;2022-12-07T14:19:06;6.40;74.50
15359;DHT22;7779;49.596;11.070;2022-12-07T14:25:20;6.40;74.50
15359;DHT22;7779;49.596;11.070;2022-12-07T14:27:51;6.30;74.20
15359;DHT22;7779;49.596;11.070;2022-12-07T14:30:29;6.40;74.70
15359;DHT22;7779;49.596;11.070;2022-12-07T14:33:02;6.40;74.60
15359;DHT22;7779;49.596;11.070;2022-12-07T14:35:31;6.30;74.40
15359;DHT22;7779;49.596;11.070;2022-12-07T14:37:57;6.30;74.40
15359;DHT22;7779;49.596;11.070;2022-12-07T14:40:26;6.30;74.40
15359;DHT22;7779;49.596;11.070;2022-12-07T14:43:02;6.30;74.30
15359;DHT22;7779;49.596;11.070;2022-12-07T14:45:31;6.30;74.10
15359;DHT22;7779;49.596;11.070;2022-12-07T14:47:56;6.30;74.10
15359;DHT22;7779;49.596;11.070;2022-12-07T14:50:22;6.30;74.10
15359;DHT22;7779;49.596;11.070;2022-12-07T14:52:55;6.30;74.00
15359;DHT22;7779;49.596;11.070;2022-12-07T14:55:29;6.30;73.30
15359;DHT22;7779;49.596;11.070;2022-12-07T14:57:56;6.30;73.80
15359;DHT22;7779;49.596;11.070;2022-12-07T15:00:25;6.20;73.70
15359;DHT22;7779;49.596;11.070;2022-12-07T15:02:53;6.20;73.50
15359;DHT22;7779;49.596;11.070;2022-12-07T15:05:19;6.10;73.30
15359;DHT22;7779;49.596;11.070;2022-12-07T15:07:45;6.10;73.90
15359;DHT22;7779;49.596;11.070;2022-12-07T15:10:19;6.10;73.20
15359;DHT22;7779;49.596;11.070;2022-12-07T15:12:50;6.00;73.10
15359;DHT22;7779;49.596;11.070;2022-12-07T15:15:16;5.90;73.10
15359;DHT22;7779;49.596;11.070;2022-12-07T15:17:42;5.90;73.20
15359;DHT22;7779;49.596;11.070;2022-12-07T15:20:13;5.80;73.20
15359;DHT22;7779;49.596;11.070;2022-12-07T15:22:40;5.80;73.20
15359;DHT22;7779;49.596;11.070;2022-12-07T15:25:06;5.80;73.30
15359;DHT22;7779;49.596;11.070;2022-12-07T15:27:33;5.70;73.20
15359;DHT22;7779;49.596;11.070;2022-12-07T15:29:59;5.70;73.20
15359;DHT22;7779;49.596;11.070;2022-12-07T15:32:24;5.60;73.20
15359;DHT22;7779;49.596;11.070;2022-12-07T15:34:50;5.60;73.30
15359;DHT22;7779;49.596;11.070;2022-12-07T15:37:16;5.60;73.50
15359;DHT22;7779;49.596;11.070;2022-12-07T15:39:42;5.60;73.60
15359;DHT22;7779;49.596;11.070;2022-12-07T15:42:07;5.50;73.70
15359;DHT22;7779;49.596;11.070;2022-12-07T15:44:33;5.50;73.80
15359;DHT22;7779;49.596;11.070;2022-12-07T15:47:17;5.50;73.40
15359;DHT22;7779;49.596;11.070;2022-12-07T15:49:43;5.50;73.90
15359;DHT22;7779;49.596;11.070;2022-12-07T15:52:09;5.40;73.90
15359;DHT22;7779;49.596;11.070;2022-12-07T15:54:35;5.40;74.00
15359;DHT22;7779;49.596;11.070;2022-12-07T15:57:01;5.40;74.10
15359;DHT22;7779;49.596;11.070;2022-12-07T15:59:27;5.30;74.10
15359;DHT22;7779;49.596;11.070;2022-12-07T16:01:53;5.30;74.20
15359;DHT22;7779;49.596;11.070;2022-12-07T16:04:19;5.30;74.30
15359;DHT22;7779;49.596;11.070;2022-12-07T16:06:45;5.30;74.30
15359;DHT22;7779;49.596;11.070;2022-12-07T16:09:12;5.30;74.40
15359;DHT22;7779;49.596;11.070;2022-12-07T16:11:37;5.30;74.50
15359;DHT22;7779;49.596;11.070;2022-12-07T16:14:03;5.20;74.40
15359;DHT22;7779;49.596;11.070;2022-12-07T16:16:29;5.20;74.50
15359;DHT22;7779;49.596;11.070;2022-12-07T16:18:57;5.20;74.60
15359;DHT22;7779;49.596;11.070;2022-12-07T16:21:23;5.20;74.60
15359;DHT22;7779;49.596;11.070;2022-12-07T16:23:49;5.20;74.70
15359;DHT22;7779;49.596;11.070;2022-12-07T16:26:17;5.20;74.70
15359;DHT22;7779;49.596;11.070;2022-12-07T16:28:44;5.20;74.70
15359;DHT22;7779;49.596;11.070;2022-12-07T16:31:13;5.20;74.80
15359;DHT22;7779;49.596;11.070;2022-12-07T16:33:42;5.20;75.40
15359;DHT22;7779;49.596;11.070;2022-12-07T16:36:10;5.20;74.80
15359;DHT22;7779;49.596;11.070;2022-12-07T16:38:38;5.10;74.80
15359;DHT22;7779;49.596;11.070;2022-12-07T16:41:07;5.10;74.90
15359;DHT22;7779;49.596;11.070;2022-12-07T16:43:35;5.10;75.00
15359;DHT22;7779;49.596;11.070;2022-12-07T16:46:01;5.10;75.00
15359;DHT22;7779;49.596;11.070;2022-12-07T16:48:28;5.10;75.00
15359;DHT22;7779;49.596;11.070;2022-12-07T16:50:53;5.10;75.00
15359;DHT22;7779;49.596;11.070;2022-12-07T16:53:21;5.10;75.00
15359;DHT22;7779;49.596;11.070;2022-12-07T16:55:48;5.10;75.10
15359;DHT22;7779;49.596;11.070;2022-12-07T16:58:15;5.10;75.10
15359;DHT22;7779;49.596;11.070;2022-12-07T17:00:42;5.10;75.20
15359;DHT22;7779;49.596;11.070;2022-12-07T17:03:09;5.10;75.20
15359;DHT22;7779;49.596;11.070;2022-12-07T17:05:40;5.10;75.20
15359;DHT22;7779;49.596;11.070;2022-12-07T17:08:07;5.10;75.30
15359;DHT22;7779;49.596;11.070;2022-12-07T17:10:37;5.10;75.30
15359;DHT22;7779;49.596;11.070;2022-12-07T17:13:05;5.10;75.40
15359;DHT22;7779;49.596;11.070;2022-12-07T17:16:09;5.10;75.40
15359;DHT22;7779;49.596;11.070;2022-12-07T17:18:36;5.10;75.60
15359;DHT22;7779;49.596;11.070;2022-12-07T17:21:06;5.10;75.40
15359;DHT22;7779;49.596;11.070;2022-12-07T17:23:34;5.10;75.50
15359;DHT22;7779;49.596;11.070;2022-12-07T17:26:19;5.10;75.40
15359;DHT22;7779;49.596;11.070;2022-12-07T17:28:49;5.10;75.60
15359;DHT22;7779;49.596;11.070;2022-12-07T17:31:17;5.10;75.40
15359;DHT22;7779;49.596;11.070;2022-12-07T17:33:44;5.10;75.20
15359;DHT22;7779;49.596;11.070;2022-12-07T17:36:16;5.10;75.20
15359;DHT22;7779;49.596;11.070;2022-12-07T17:38:47;5.10;75.20
15359;DHT22;7779;49.596;11.070;2022-12-07T17:41:18;5.10;75.20
15359;DHT22;7779;49.596;11.070;2022-12-07T17:44:13;5.10;75.20
15359;DHT22;7779;49.596;11.070;2022-12-07T17:46:41;5.10;75.30
15359;DHT22;7779;49.596;11.070;2022-12-07T17:49:08;5.10;75.30
15359;DHT22;7779;49.596;11.070;2022-12-07T17:51:34;5.10;75.40
15359;DHT22;7779;49.596;11.070;2022-12-07T17:54:18;5.10;75.40